Time;durP1;ratioP1;P1;durP2;ratioP2;P2;SDS_P1;SDS_P2;PMS_P1;PMS_P2;Temp;Humidity;BMP_temperature;BMP_pressure;BME280_temperature;BME280_humidity;BME280_pressure;Samples;Min_cycle;Max_cycle;Signal;HPM_P1;HPM_P2
2021/06/19 00:04:48;;;;;;;7.27;6.57;;;;;;;21.11;55.91;99998.98;254235;1104;216076;-74
2021/06/19 00:09:51;;;;;;;6.25;5.75;;;;;;;21.07;55.79;100000.70;254190;1104;115972;-72
2021/06/19 00:14:54;;;;;;;8.27;5.77;;;;;;;21.05;55.71;100008.33;254229;1104;116772;-74
2021/06/19 00:19:58;;;;;;;8.60;5.73;;;;;;;21.01;55.96;100006.50;254521;1103;115848;-77
2021/06/19 00:25:01;;;;;;;6.65;5.95;;;;;;;20.96;56.17;100006.58;254233;1104;115571;-75
2021/06/19 00:30:07;;;;;;;6.57;5.97;;;;;;;20.90;56.12;100003.14;254279;1104;116158;-75
2021/06/19 00:35:12;;;;;;;6.25;5.68;;;;;;;20.84;56.32;99998.91;254446;1102;115623;-74
2021/06/19 00:40:17;;;;;;;6.57;6.03;;;;;;;20.79;56.27;100004.43;254935;1104;115391;-75
2021/06/19 00:45:28;;;;;;;10.33;5.73;;;;;;;20.75;57.00;99993.38;254404;1104;115514;-73
2021/06/19 00:50:32;;;;;;;8.80;6.23;;;;;;;20.69;56.53;100002.68;255415;1103;115843;-73
2021/06/19 00:55:36;;;;;;;6.78;6.18;;;;;;;20.63;56.92;99995.73;254699;1096;115298;-73
2021/06/19 01:00:39;;;;;;;7.03;6.47;;;;;;;20.58;56.70;99995.00;254936;1104;115195;-74
2021/06/19 01:05:44;;;;;;;11.63;7.33;;;;;;;20.55;56.83;99990.97;254381;1104;115403;-74
2021/06/19 01:10:47;;;;;;;7.58;6.98;;;;;;;20.58;56.90;99992.28;254818;1102;115833;-73
2021/06/19 01:15:51;;;;;;;7.83;7.20;;;;;;;20.57;57.22;99996.09;254190;1103;114911;-74
2021/06/19 01:21:24;;;;;;;9.73;6.38;;;;;;;20.52;57.19;100002.39;255084;1096;114930;-74
2021/06/19 01:26:31;;;;;;;8.93;7.70;;;;;;;20.49;57.27;100002.97;254684;1104;116509;-75
2021/06/19 01:31:38;;;;;;;8.68;7.48;;;;;;;20.44;57.52;100001.17;256015;1103;115072;-74
2021/06/19 01:36:43;;;;;;;6.33;5.83;;;;;;;20.37;57.61;100002.59;254264;1104;115588;-76
2021/06/19 01:41:46;;;;;;;7.15;6.45;;;;;;;20.30;57.42;100000.25;254775;1097;115798;-75
2021/06/19 01:46:51;;;;;;;7.15;6.55;;;;;;;20.24;57.89;100001.41;254317;1104;115869;-74
2021/06/19 01:51:55;;;;;;;7.98;6.53;;;;;;;20.17;57.76;99998.28;254402;1103;114863;-74
2021/06/19 01:56:58;;;;;;;7.25;6.33;;;;;;;20.09;57.71;99997.02;255722;1103;115526;-76
2021/06/19 02:02:03;;;;;;;13.25;7.18;;;;;;;20.09;58.01;100002.44;254263;1103;117171;-76
2021/06/19 02:07:06;;;;;;;8.80;7.47;;;;;;;20.09;58.28;100007.84;256625;1103;114993;-77
2021/06/19 02:12:09;;;;;;;10.03;7.53;;;;;;;20.07;58.12;100009.23;255196;1103;115526;-74
2021/06/19 02:17:13;;;;;;;8.00;7.20;;;;;;;20.05;58.59;100014.94;254392;1104;115716;-78
2021/06/19 02:22:17;;;;;;;7.40;6.80;;;;;;;20.02;58.34;100015.52;254672;1103;116363;-77
2021/06/19 02:27:20;;;;;;;8.25;7.45;;;;;;;19.95;58.74;100004.23;254328;1103;115475;-73
2021/06/19 02:32:23;;;;;;;10.10;6.58;;;;;;;19.89;58.86;100015.40;254532;1103;115404;-77
2021/06/19 02:37:27;;;;;;;8.20;7.47;;;;;;;19.84;58.82;100013.59;254414;1104;117910;-77
2021/06/19 02:42:30;;;;;;;8.55;7.30;;;;;;;19.75;59.07;100024.23;254300;1104;115142;-77
2021/06/19 02:47:34;;;;;;;8.58;7.70;;;;;;;19.69;59.14;100028.08;254391;1103;115271;-77
2021/06/19 02:52:41;;;;;;;8.15;7.35;;;;;;;19.71;59.11;100031.30;254405;1103;115347;-77
2021/06/19 02:57:45;;;;;;;13.55;8.33;;;;;;;19.70;59.38;100026.19;254493;1102;115728;-77
2021/06/19 03:02:50;;;;;;;8.40;7.00;;;;;;;19.64;59.49;100035.44;254409;1103;137634;-76
2021/06/19 03:07:54;;;;;;;7.98;7.18;;;;;;;19.66;59.43;100034.06;254530;1103;115162;-76
2021/06/19 03:12:58;;;;;;;7.23;6.55;;;;;;;19.64;59.68;100030.84;254442;1103;116319;-74
2021/06/19 03:18:02;;;;;;;8.65;6.78;;;;;;;19.53;59.77;100028.55;254929;1103;115701;-72
2021/06/19 03:23:06;;;;;;;7.18;6.60;;;;;;;19.43;60.19;100026.72;254807;1097;114873;-78
2021/06/19 03:28:12;;;;;;;8.90;8.20;;;;;;;19.39;60.47;100029.18;254497;1097;115359;-72
2021/06/19 03:33:16;;;;;;;8.85;8.00;;;;;;;19.43;60.78;100024.81;254552;1102;115700;-72
2021/06/19 03:38:20;;;;;;;9.90;7.98;;;;;;;19.52;60.95;100029.64;255274;1102;114825;-76
2021/06/19 03:43:24;;;;;;;15.73;7.50;;;;;;;19.73;61.37;100028.31;256303;1103;115477;-74
2021/06/19 03:48:27;;;;;;;7.60;6.80;;;;;;;19.83;61.04;100033.62;256976;1097;115140;-74
2021/06/19 03:53:30;;;;;;;8.40;7.20;;;;;;;19.91;61.23;100030.25;254479;1103;116037;-76
2021/06/19 03:58:34;;;;;;;7.90;7.20;;;;;;;20.14;61.25;100024.03;255148;1104;115736;-77
2021/06/19 04:03:37;;;;;;;11.08;8.85;;;;;;;20.27;60.97;100017.07;255278;1104;116582;-73
2021/06/19 04:08:40;;;;;;;9.60;8.70;;;;;;;20.43;61.18;100018.52;254400;1102;115707;-73
2021/06/19 04:13:44;;;;;;;8.63;7.93;;;;;;;20.64;61.05;100015.49;254378;1103;115223;-74
2021/06/19 04:18:47;;;;;;;10.10;7.90;;;;;;;20.93;60.91;100016.11;254437;1097;116569;-74
2021/06/19 04:23:50;;;;;;;7.38;6.80;;;;;;;21.27;60.72;100006.89;255049;1101;115686;-75
2021/06/19 04:28:54;;;;;;;16.20;6.93;;;;;;;21.74;60.49;100005.70;254183;1100;116115;-72
2021/06/19 04:33:59;;;;;;;6.55;6.03;;;;;;;23.67;58.36;100004.67;254513;1103;115999;-73
2021/06/19 04:39:01;;;;;;;6.67;6.17;;;;;;;28.46;52.22;100003.53;254976;1097;118361;-73
2021/06/19 04:44:17;;;;;;;9.80;7.40;;;;;;;31.56;48.51;100016.18;254681;1102;115391;-73
2021/06/19 04:49:20;;;;;;;6.75;6.15;;;;;;;32.55;44.75;100014.11;254511;1096;115770;-73
2021/06/19 04:54:24;;;;;;;6.55;6.00;;;;;;;31.41;44.32;100018.72;254368;1104;115647;-73
2021/06/19 04:59:27;;;;;;;6.70;6.23;;;;;;;30.46;44.53;100015.67;254361;1104;114876;-75
2021/06/19 05:04:29;;;;;;;8.25;5.95;;;;;;;31.63;42.62;100017.09;254504;1104;115292;-76
2021/06/19 05:09:32;;;;;;;6.47;5.73;;;;;;;33.79;40.07;100023.69;254387;1097;115595;-76
2021/06/19 05:14:36;;;;;;;5.25;4.75;;;;;;;36.76;37.24;100027.30;254728;1104;116080;-76
2021/06/19 05:19:39;;;;;;;11.63;5.13;;;;;;;39.27;32.78;100031.56;255059;1103;115800;-76
2021/06/19 05:24:42;;;;;;;5.70;3.63;;;;;;;41.30;30.65;100045.17;254226;1102;116132;-73
2021/06/19 05:29:45;;;;;;;4.78;3.68;;;;;;;43.42;28.68;100038.84;255366;1104;116181;-74
2021/06/19 05:34:51;;;;;;;3.48;3.28;;;;;;;44.94;26.47;100035.36;254688;1104;115802;-73
2021/06/19 05:39:55;;;;;;;3.88;3.20;;;;;;;45.86;24.13;100039.19;254308;1104;116080;-76
2021/06/19 05:44:59;;;;;;;6.65;3.33;;;;;;;46.00;22.73;100032.94;256577;1104;114944;-72
2021/06/19 05:50:02;;;;;;;2.90;2.70;;;;;;;46.74;23.16;100034.41;257210;1104;115413;-72
2021/06/19 05:55:06;;;;;;;4.05;2.95;;;;;;;47.32;21.55;100038.84;257408;1102;116384;-70
2021/06/19 06:00:09;;;;;;;2.68;2.48;;;;;;;48.38;20.96;100045.86;255662;1104;116763;-73
2021/06/19 06:05:14;;;;;;;2.47;2.33;;;;;;;49.14;19.79;100049.71;254716;1103;116254;-72
2021/06/19 06:10:17;;;;;;;5.85;2.35;;;;;;;49.22;19.15;100043.18;254235;1104;115442;-73
2021/06/19 06:15:22;;;;;;;3.35;2.98;;;;;;;49.64;18.53;100038.31;254540;1103;115870;-72
2021/06/19 06:20:28;;;;;;;2.73;2.08;;;;;;;50.22;17.93;100039.98;254379;1103;116228;-72
2021/06/19 06:25:31;;;;;;;3.54;3.32;;;;;;;50.57;17.62;100039.81;254411;1104;116880;-72
2021/06/19 06:30:34;;;;;;;4.35;2.75;;;;;;;50.23;17.41;100042.33;255292;1103;116272;-71
2021/06/19 06:35:37;;;;;;;3.10;2.40;;;;;;;50.44;16.88;100050.81;254538;1104;115608;-71
2021/06/19 06:40:41;;;;;;;6.70;2.75;;;;;;;50.31;17.37;100041.91;254666;1104;116221;-71
2021/06/19 06:45:44;;;;;;;2.40;2.20;;;;;;;49.81;16.87;100051.41;254269;1103;116157;-70
2021/06/19 06:50:47;;;;;;;2.88;2.48;;;;;;;49.74;16.67;100045.39;255313;1104;115524;-72
2021/06/19 06:55:50;;;;;;;3.13;2.83;;;;;;;49.64;16.33;100038.31;254714;1104;116492;-73
2021/06/19 07:00:53;;;;;;;3.53;3.10;;;;;;;49.09;17.33;100039.09;254660;1103;116067;-73
2021/06/19 07:05:55;;;;;;;2.60;2.40;;;;;;;48.52;17.49;100034.59;255266;1104;115904;-74
2021/06/19 07:10:58;;;;;;;2.88;2.53;;;;;;;48.24;16.80;100028.42;255314;1104;115538;-74
2021/06/19 07:16:02;;;;;;;3.88;2.95;;;;;;;48.51;17.38;100023.77;254893;1104;118601;-71
2021/06/19 07:21:05;;;;;;;2.50;2.40;;;;;;;48.27;17.19;100015.36;255011;1104;115802;-75
2021/06/19 07:26:08;;;;;;;3.37;1.97;;;;;;;47.23;16.78;100013.48;254741;1104;115701;-70
2021/06/19 07:31:12;;;;;;;3.53;2.65;;;;;;;46.10;17.99;100005.54;254725;1104;115635;-70
2021/06/19 07:36:16;;;;;;;3.83;2.07;;;;;;;44.91;18.03;99999.72;254625;1103;216169;-71
2021/06/19 07:41:19;;;;;;;2.00;1.90;;;;;;;43.83;20.50;99990.88;256468;1104;115524;-73
2021/06/19 07:46:23;;;;;;;2.68;1.93;;;;;;;42.79;20.75;99991.94;255321;1103;115733;-78
2021/06/19 07:51:30;;;;;;;16.00;4.00;;;;;;;42.24;21.77;99979.94;254439;1102;116011;-73
2021/06/19 07:56:33;;;;;;;1.90;1.80;;;;;;;41.64;21.80;99977.58;255288;1104;115470;-76
2021/06/19 08:01:35;;;;;;;9.37;3.27;;;;;;;40.77;22.00;99965.33;254414;1103;115188;-73
2021/06/19 08:06:38;;;;;;;1.70;1.60;;;;;;;40.28;23.92;99973.55;257243;1103;115079;-73
2021/06/19 08:11:41;;;;;;;3.00;2.05;;;;;;;39.69;22.57;99971.50;255844;1103;115267;-74
2021/06/19 08:16:49;;;;;;;4.08;2.30;;;;;;;39.12;23.49;99973.67;256878;1102;115163;-76
2021/06/19 08:21:52;;;;;;;2.25;1.75;;;;;;;38.76;24.37;99965.83;256241;1103;116172;-75
2021/06/19 08:26:56;;;;;;;3.00;2.13;;;;;;;38.30;24.31;99952.48;254163;1103;115675;-76
2021/06/19 08:31:59;;;;;;;3.00;2.80;;;;;;;37.79;25.80;99956.26;254879;1097;115446;-75
2021/06/19 08:37:03;;;;;;;3.40;2.28;;;;;;;37.83;27.14;99954.23;254303;1103;115876;-73
2021/06/19 08:42:07;;;;;;;2.60;2.40;;;;;;;37.84;26.42;99950.25;254389;1104;116823;-76
2021/06/19 08:47:11;;;;;;;4.40;2.25;;;;;;;37.59;26.27;99951.27;254435;1104;116908;-74
2021/06/19 08:52:17;;;;;;;2.90;2.18;;;;;;;37.47;28.36;99960.12;254340;1104;116028;-78
2021/06/19 08:57:20;;;;;;;4.50;2.93;;;;;;;37.37;28.31;99952.66;254602;1097;116623;-74
2021/06/19 09:02:22;;;;;;;;;;;;;;;37.23;28.21;99950.02;254185;1103;115733;-73
2021/06/19 09:07:36;;;;;;;3.15;2.95;;;;;;;36.43;28.58;99954.44;255988;1103;102982;-78
2021/06/19 09:12:39;;;;;;;2.68;2.58;;;;;;;36.53;29.13;99952.02;254451;1103;117383;-74
2021/06/19 09:17:43;;;;;;;2.25;1.98;;;;;;;36.14;29.19;99947.41;254377;1103;116408;-77
2021/06/19 09:22:45;;;;;;;3.03;2.43;;;;;;;36.03;29.98;99941.92;254236;1103;116459;-73
2021/06/19 09:27:53;;;;;;;2.30;2.18;;;;;;;36.24;29.11;99935.48;254406;1104;116099;-78
2021/06/19 09:33:01;;;;;;;2.10;2.00;;;;;;;36.04;29.69;99932.41;254353;1104;117062;-77
2021/06/19 09:38:12;;;;;;;3.55;2.48;;;;;;;35.80;28.83;99930.48;255408;1104;116663;-75
2021/06/19 09:43:25;;;;;;;3.57;2.33;;;;;;;35.68;29.55;99926.14;255541;1102;115933;-77
2021/06/19 09:48:30;;;;;;;2.25;2.13;;;;;;;35.58;30.71;99915.84;256667;1104;115653;-77
2021/06/19 09:53:32;;;;;;;2.37;2.27;;;;;;;35.67;30.77;99918.22;256156;1103;115369;-80
2021/06/19 09:58:55;;;;;;;2.25;2.08;;;;;;;35.74;30.70;99913.45;254961;1104;115082;-78
2021/06/19 10:04:16;;;;;;;2.65;2.45;;;;;;;35.86;31.33;99908.67;256295;1103;114970;-73
2021/06/19 10:09:20;;;;;;;3.20;2.90;;;;;;;36.05;30.05;99908.22;255214;1102;116373;-73
2021/06/19 10:14:24;;;;;;;5.40;2.20;;;;;;;36.16;30.44;99908.95;254288;1104;116514;-75
2021/06/19 10:19:27;;;;;;;4.85;2.38;;;;;;;36.06;29.92;99898.70;255977;1104;116741;-73
2021/06/19 10:24:30;;;;;;;;;;;;;;;36.02;29.93;99893.17;254456;1102;116966;-72
2021/06/19 10:29:33;;;;;;;5.80;2.70;;;;;;;36.09;30.57;99890.34;255000;1104;104331;-73
2021/06/19 10:34:38;;;;;;;4.87;2.40;;;;;;;36.23;30.29;99886.72;255386;1104;116928;-75
2021/06/19 10:39:44;;;;;;;2.40;2.20;;;;;;;36.07;29.94;99875.31;254627;1104;116631;-74
2021/06/19 10:45:01;;;;;;;4.78;1.50;;;;;;;35.86;30.48;99883.70;254460;1104;118010;-75
2021/06/19 10:50:21;;;;;;;3.80;2.25;;;;;;;35.80;30.97;99882.53;254578;1104;115795;-75
2021/06/19 10:55:25;;;;;;;5.60;1.95;;;;;;;35.84;30.29;99861.13;254690;1104;116298;-76
2021/06/19 11:00:45;;;;;;;6.33;3.13;;;;;;;35.87;29.87;99849.23;254282;1099;115621;-74
2021/06/19 11:05:55;;;;;;;2.58;2.43;;;;;;;35.76;30.03;99844.50;255279;1103;114844;-74
2021/06/19 11:11:00;;;;;;;6.70;1.93;;;;;;;35.45;29.63;99853.72;254336;1103;116100;-79
2021/06/19 11:16:04;;;;;;;2.50;2.40;;;;;;;35.56;30.79;99837.03;254409;1104;115620;-79
2021/06/19 11:21:12;;;;;;;2.15;1.83;;;;;;;35.76;29.83;99836.19;254865;1103;116171;-75
2021/06/19 11:26:47;;;;;;;3.43;2.27;;;;;;;35.82;29.33;99833.79;254899;1103;115474;-76
2021/06/19 11:31:51;;;;;;;1.90;1.90;;;;;;;35.78;29.79;99847.67;254520;1104;115800;-75
2021/06/19 11:36:59;;;;;;;1.95;1.85;;;;;;;35.75;29.87;99842.92;255493;1104;116497;-76
2021/06/19 11:42:03;;;;;;;4.25;3.00;;;;;;;35.70;29.10;99837.78;254082;1104;116549;-74
2021/06/19 11:47:09;;;;;;;3.93;2.48;;;;;;;35.70;29.10;99828.67;256354;1104;115384;-77
2021/06/19 11:52:17;;;;;;;2.80;2.10;;;;;;;35.47;29.58;99820.81;255423;1104;115979;-73
2021/06/19 11:57:25;;;;;;;2.13;2.03;;;;;;;35.57;29.26;99805.34;254294;1103;115698;-73
2021/06/19 12:02:29;;;;;;;3.15;2.18;;;;;;;35.45;29.00;99798.27;257327;1103;115455;-74
2021/06/19 12:07:32;;;;;;;2.00;1.90;;;;;;;35.52;29.52;99794.66;256550;1103;117350;-79
2021/06/19 12:12:35;;;;;;;2.30;2.20;;;;;;;35.58;28.92;99787.52;254417;1103;115817;-76
2021/06/19 12:17:41;;;;;;;3.23;2.20;;;;;;;35.57;28.32;99781.18;255135;1104;116114;-76
2021/06/19 12:22:44;;;;;;;2.80;2.58;;;;;;;35.51;28.60;99795.85;255995;1104;115677;-75
2021/06/19 12:27:47;;;;;;;7.58;2.85;;;;;;;35.48;28.73;99788.34;254139;1102;116410;-74
2021/06/19 12:32:50;;;;;;;3.48;2.13;;;;;;;35.33;28.49;99782.06;254912;1103;116263;-75
2021/06/19 12:37:56;;;;;;;2.23;2.10;;;;;;;35.28;28.13;99774.13;254264;1104;115654;-75
2021/06/19 12:43:01;;;;;;;1.90;1.80;;;;;;;35.26;28.87;99770.97;254262;1097;115796;-77
2021/06/19 12:48:17;;;;;;;1.78;1.73;;;;;;;35.27;29.90;99778.09;254231;1104;116331;-78
2021/06/19 12:53:29;;;;;;;2.63;2.53;;;;;;;35.25;29.13;99766.61;255079;1103;115139;-73
2021/06/19 12:58:43;;;;;;;3.00;2.27;;;;;;;35.25;28.79;99764.63;254302;1104;115677;-73
2021/06/19 13:03:56;;;;;;;6.45;2.78;;;;;;;35.23;28.76;99752.36;255394;1104;115069;-75
2021/06/19 13:09:05;;;;;;;1.58;1.48;;;;;;;35.01;28.67;99755.20;254970;1104;115684;-75
2021/06/19 13:14:24;;;;;;;2.40;2.25;;;;;;;34.85;29.53;99756.83;254960;1103;115442;-75
2021/06/19 13:19:38;;;;;;;8.57;2.03;;;;;;;34.78;29.46;99761.15;255013;1104;115938;-78
2021/06/19 13:24:42;;;;;;;3.63;2.77;;;;;;;34.87;29.80;99760.75;254837;1102;116188;-78
2021/06/19 13:30:01;;;;;;;4.83;2.40;;;;;;;34.81;29.09;99751.30;254473;1103;115639;-77
2021/06/19 13:35:09;;;;;;;2.13;2.00;;;;;;;34.83;29.24;99743.38;254366;1102;114760;-77
2021/06/19 13:40:13;;;;;;;4.30;2.20;;;;;;;34.73;28.58;99733.06;254242;1104;115012;-78
2021/06/19 13:45:16;;;;;;;2.75;1.68;;;;;;;34.65;28.12;99734.25;255271;1103;115491;-78
2021/06/19 13:50:19;;;;;;;3.08;2.70;;;;;;;34.53;28.99;99729.94;254591;1104;115429;-79
2021/06/19 13:55:26;;;;;;;1.90;1.80;;;;;;;34.44;28.75;99729.53;256254;1102;115531;-77
2021/06/19 14:00:30;;;;;;;4.98;2.33;;;;;;;34.39;29.14;99725.17;254875;1104;115468;-74
2021/06/19 14:05:33;;;;;;;4.00;2.70;;;;;;;34.24;28.59;99717.25;254989;1104;116117;-75
2021/06/19 14:10:36;;;;;;;2.25;2.15;;;;;;;34.16;28.78;99727.52;255428;1104;115387;-75
2021/06/19 14:15:39;;;;;;;2.85;2.65;;;;;;;34.14;29.13;99710.52;257397;1104;115440;-75
2021/06/19 14:20:42;;;;;;;3.05;2.85;;;;;;;34.11;29.28;99708.54;257068;1104;117595;-74
2021/06/19 14:25:45;;;;;;;8.50;3.33;;;;;;;34.16;29.58;99699.06;254645;1103;117017;-74
2021/06/19 14:30:47;;;;;;;2.50;2.30;;;;;;;34.04;29.55;99705.76;255813;1096;117072;-75
2021/06/19 14:35:50;;;;;;;4.77;2.67;;;;;;;34.00;30.09;99702.19;254400;1096;117105;-78
2021/06/19 14:40:53;;;;;;;2.60;2.50;;;;;;;33.92;29.93;99695.09;254482;1097;116732;-74
2021/06/19 14:45:57;;;;;;;3.55;2.53;;;;;;;33.75;29.98;99686.33;254357;1097;116344;-75
2021/06/19 14:51:00;;;;;;;;;;;;;;;33.64;30.15;99693.80;255359;1104;116280;-73
2021/06/19 14:56:03;;;;;;;3.80;2.65;;;;;;;33.49;30.54;99694.16;255286;1104;103931;-73
2021/06/19 15:01:06;;;;;;;2.95;2.75;;;;;;;33.21;30.63;99703.09;254358;1104;116868;-76
2021/06/19 15:06:09;;;;;;;3.95;2.78;;;;;;;33.09;30.67;99690.41;254886;1104;116071;-73
2021/06/19 15:11:13;;;;;;;4.55;2.73;;;;;;;33.00;30.77;99687.22;254479;1099;115268;-75
2021/06/19 15:16:16;;;;;;;3.83;2.70;;;;;;;32.93;31.06;99695.46;254925;1104;116037;-73
2021/06/19 15:21:23;;;;;;;4.28;3.28;;;;;;;32.83;30.90;99680.41;254304;1102;115325;-73
2021/06/19 15:26:25;;;;;;;3.73;3.00;;;;;;;32.84;31.43;99676.47;254357;1104;116791;-72
2021/06/19 15:31:48;;;;;;;3.70;2.90;;;;;;;32.84;32.01;99670.95;254178;1099;115767;-73
2021/06/19 15:36:54;;;;;;;3.90;3.53;;;;;;;32.80;31.85;99676.45;254351;1104;115916;-72
2021/06/19 15:41:57;;;;;;;6.30;3.60;;;;;;;32.81;31.88;99666.20;254611;1104;116808;-72
2021/06/19 15:47:00;;;;;;;6.20;3.63;;;;;;;32.68;31.54;99659.41;254436;1104;115958;-73
2021/06/19 15:52:06;;;;;;;4.05;3.50;;;;;;;32.59;31.80;99672.74;254635;1104;117090;-73
2021/06/19 15:57:09;;;;;;;4.60;3.40;;;;;;;32.52;32.30;99662.44;254365;1104;116396;-75
2021/06/19 16:02:15;;;;;;;5.00;4.58;;;;;;;32.40;31.99;99666.32;257111;1104;117167;-74
2021/06/19 16:07:19;;;;;;;7.20;4.20;;;;;;;32.31;32.56;99667.81;255970;1097;116139;-73
2021/06/19 16:12:22;;;;;;;5.93;3.40;;;;;;;32.20;32.32;99661.38;254341;1103;115608;-76
2021/06/19 16:17:25;;;;;;;3.60;3.40;;;;;;;32.13;33.43;99664.86;254342;1103;116956;-73
2021/06/19 16:22:28;;;;;;;14.88;4.08;;;;;;;32.06;33.36;99662.06;254960;1104;115080;-74
2021/06/19 16:27:31;;;;;;;4.15;3.85;;;;;;;31.95;33.04;99659.20;257423;1103;115501;-72
2021/06/19 16:32:37;;;;;;;4.58;4.18;;;;;;;31.88;33.58;99658.34;256220;1102;115080;-74
2021/06/19 16:37:42;;;;;;;4.50;4.07;;;;;;;31.91;33.96;99660.34;254906;1102;114849;-74
2021/06/19 16:42:46;;;;;;;8.63;4.75;;;;;;;31.84;34.60;99654.75;254173;1103;116139;-73
2021/06/19 16:47:50;;;;;;;4.15;3.73;;;;;;;31.74;33.98;99662.56;255464;1103;115609;-73
2021/06/19 16:52:54;;;;;;;7.75;4.33;;;;;;;31.59;34.30;99658.03;254356;1104;116160;-75
2021/06/19 16:58:02;;;;;;;6.27;4.17;;;;;;;31.40;33.92;99663.73;254897;1096;115776;-76
2021/06/19 17:03:06;;;;;;;4.28;3.88;;;;;;;31.22;34.11;99662.70;254431;1103;116975;-76
2021/06/19 17:08:09;;;;;;;4.93;4.08;;;;;;;31.02;35.00;99660.09;254201;1103;115470;-74
2021/06/19 17:13:12;;;;;;;6.03;4.63;;;;;;;30.92;35.36;99671.73;254234;1104;115649;-73
2021/06/19 17:18:14;;;;;;;10.88;4.90;;;;;;;30.82;35.60;99672.41;254272;1104;115988;-73
2021/06/19 17:23:17;;;;;;;5.15;4.68;;;;;;;30.63;36.57;99665.05;254688;1102;115489;-73
2021/06/19 17:28:21;;;;;;;5.57;5.23;;;;;;;30.48;36.20;99676.98;254446;1097;114984;-74
2021/06/19 17:33:25;;;;;;;8.03;5.03;;;;;;;30.36;36.54;99669.71;254158;1104;116292;-74
2021/06/19 17:38:29;;;;;;;9.55;5.83;;;;;;;30.24;37.72;99674.63;254220;1104;115268;-75
2021/06/19 17:43:32;;;;;;;5.93;5.43;;;;;;;30.07;38.06;99665.70;254363;1104;115211;-76
2021/06/19 17:48:40;;;;;;;6.00;5.60;;;;;;;29.92;39.58;99668.55;254758;1104;115563;-75
2021/06/19 17:53:43;;;;;;;6.13;5.03;;;;;;;29.75;39.42;99667.06;254278;1104;115866;-75
2021/06/19 17:58:45;;;;;;;10.50;6.08;;;;;;;29.52;40.57;99669.78;254373;1096;114626;-74
2021/06/19 18:03:49;;;;;;;10.53;5.50;;;;;;;29.32;41.13;99670.92;254988;1103;115664;-77
2021/06/19 18:08:53;;;;;;;6.23;5.55;;;;;;;29.09;42.12;99670.83;254522;1097;116393;-76
2021/06/19 18:13:55;;;;;;;7.43;6.08;;;;;;;28.88;42.48;99681.34;256067;1103;115759;-76
2021/06/19 18:19:03;;;;;;;6.93;6.33;;;;;;;28.71;42.97;99685.27;256985;1103;114974;-78
2021/06/19 18:24:07;;;;;;;7.80;6.95;;;;;;;28.52;43.96;99688.72;257324;1103;115986;-74
2021/06/19 18:29:10;;;;;;;14.58;6.70;;;;;;;28.33;44.04;99683.98;256897;1103;115766;-74
2021/06/19 18:34:15;;;;;;;6.45;5.95;;;;;;;28.11;44.60;99679.09;256097;1096;116331;-74
2021/06/19 18:39:20;;;;;;;14.90;6.60;;;;;;;27.90;44.90;99687.54;254359;1104;115834;-75
2021/06/19 18:44:24;;;;;;;7.77;6.93;;;;;;;27.65;45.20;99695.09;254303;1103;116236;-74
2021/06/19 18:49:28;;;;;;;9.38;6.83;;;;;;;27.45;45.75;99698.81;254244;1104;115825;-75
2021/06/19 18:54:32;;;;;;;14.33;7.10;;;;;;;27.27;46.19;99697.48;255544;1103;114773;-74
2021/06/19 18:59:38;;;;;;;6.83;6.23;;;;;;;27.07;46.45;99710.20;254841;1104;117506;-77
2021/06/19 19:04:46;;;;;;;7.05;6.55;;;;;;;26.88;46.64;99705.31;254683;1104;115024;-74
2021/06/19 19:09:51;;;;;;;10.20;7.08;;;;;;;26.70;47.58;99706.69;254305;1103;114964;-74
2021/06/19 19:14:54;;;;;;;7.70;7.05;;;;;;;26.54;47.54;99716.72;254680;1097;115710;-74
2021/06/19 19:19:58;;;;;;;7.25;6.63;;;;;;;26.36;47.93;99716.92;254339;1103;115627;-76
2021/06/19 19:25:02;;;;;;;10.00;6.25;;;;;;;26.21;48.14;99719.51;254467;1104;115300;-73
2021/06/19 19:30:08;;;;;;;6.03;5.53;;;;;;;26.01;48.19;99721.16;254480;1103;116367;-73
2021/06/19 19:35:11;;;;;;;7.77;6.40;;;;;;;25.79;48.90;99728.61;254826;1103;115911;-74
2021/06/19 19:40:17;;;;;;;10.27;6.30;;;;;;;25.59;49.28;99725.89;254525;1104;116401;-74
2021/06/19 19:45:23;;;;;;;8.40;7.70;;;;;;;25.41;49.57;99727.95;254363;1102;116044;-73
2021/06/19 19:50:30;;;;;;;9.18;6.88;;;;;;;25.24;49.64;99730.83;254872;1104;117755;-75
2021/06/19 19:55:35;;;;;;;7.48;6.88;;;;;;;25.11;50.16;99736.20;254727;1102;115751;-75
2021/06/19 20:00:40;;;;;;;;;;;;;;;25.02;50.85;99738.20;255780;1104;115749;-76
2021/06/19 20:05:44;;;;;;;8.08;7.28;;;;;;;24.89;50.66;99736.47;255611;1104;103434;-73
2021/06/19 20:10:48;;;;;;;7.73;7.05;;;;;;;24.84;51.07;99742.91;257260;1104;115134;-74
2021/06/19 20:15:51;;;;;;;8.10;7.33;;;;;;;24.81;51.09;99750.94;257417;1104;116155;-73
2021/06/19 20:20:59;;;;;;;10.30;6.95;;;;;;;24.77;51.31;99733.64;257432;1104;115291;-73
2021/06/19 20:26:03;;;;;;;8.75;7.13;;;;;;;24.72;51.66;99747.48;257176;1103;116787;-72
2021/06/19 20:31:08;;;;;;;8.75;7.95;;;;;;;24.61;51.74;99738.87;254485;1103;115473;-71
2021/06/19 20:36:12;;;;;;;7.93;7.23;;;;;;;24.53;51.71;99745.14;257521;1103;115216;-71
2021/06/19 20:41:17;;;;;;;7.48;6.78;;;;;;;24.48;51.88;99750.77;255194;1104;116155;-75
2021/06/19 20:46:21;;;;;;;8.10;7.30;;;;;;;24.39;52.36;99756.27;254341;1097;117814;-73
2021/06/19 20:51:27;;;;;;;11.45;6.98;;;;;;;24.28;52.88;99751.49;254863;1103;116042;-72
2021/06/19 20:56:30;;;;;;;;;;;;;;;24.14;53.31;99749.75;254592;1102;116255;-73
2021/06/19 21:01:33;;;;;;;6.38;5.93;;;;;;;24.02;53.18;99748.81;256675;1103;102966;-74
2021/06/19 21:06:36;;;;;;;7.15;6.55;;;;;;;23.95;53.56;99751.22;254258;1103;115625;-76
2021/06/19 21:11:39;;;;;;;7.17;5.93;;;;;;;23.85;54.14;99750.42;254565;1104;116106;-76
2021/06/19 21:16:42;;;;;;;6.90;6.27;;;;;;;23.76;53.88;99746.93;254171;1104;115978;-75
2021/06/19 21:21:46;;;;;;;7.07;6.37;;;;;;;23.70;54.23;99750.13;254451;1097;208843;-76
2021/06/19 21:26:49;;;;;;;7.00;6.40;;;;;;;23.62;54.67;99749.01;254477;1104;116456;-76
2021/06/19 21:31:53;;;;;;;6.60;6.10;;;;;;;23.59;54.66;99757.81;254291;1104;117268;-76
2021/06/19 21:36:58;;;;;;;7.45;5.85;;;;;;;23.56;54.67;99761.17;254373;1103;116569;-76
2021/06/19 21:42:03;;;;;;;5.18;4.73;;;;;;;23.56;54.70;99763.09;254461;1103;115943;-76
2021/06/19 21:47:06;;;;;;;6.20;5.73;;;;;;;23.54;54.41;99758.00;254694;1104;116824;-77
2021/06/19 21:52:13;;;;;;;5.73;5.20;;;;;;;23.53;54.56;99753.67;254364;1103;116954;-74
2021/06/19 21:57:20;;;;;;;10.68;5.23;;;;;;;23.52;54.62;99749.32;255213;1104;116017;-73
2021/06/19 22:02:24;;;;;;;6.25;5.80;;;;;;;23.48;54.43;99749.16;254945;1103;117424;-73
2021/06/19 22:07:27;;;;;;;6.80;6.07;;;;;;;23.44;54.70;99752.83;254792;1104;116054;-73
2021/06/19 22:12:31;;;;;;;5.88;5.28;;;;;;;23.44;54.55;99747.39;255051;1104;116882;-74
2021/06/19 22:17:35;;;;;;;6.97;6.37;;;;;;;23.45;54.75;99751.71;254407;1104;115728;-74
2021/06/19 22:22:38;;;;;;;6.63;6.05;;;;;;;23.43;54.67;99752.03;254115;1104;116128;-74
2021/06/19 22:27:43;;;;;;;6.77;6.27;;;;;;;23.40;54.45;99743.70;254733;1103;116382;-74
2021/06/19 22:32:47;;;;;;;6.63;6.08;;;;;;;23.35;55.00;99743.86;257300;1104;115384;-73
2021/06/19 22:37:52;;;;;;;7.45;6.65;;;;;;;23.29;55.04;99742.41;255732;1103;115991;-74
2021/06/19 22:42:57;;;;;;;7.40;6.18;;;;;;;;;;254408;1104;115902;-74
2021/06/19 22:48:04;;;;;;;6.40;5.90;;;;;;;23.18;55.40;99733.77;257676;1103;103016;-74
2021/06/19 22:53:07;;;;;;;8.65;7.75;;;;;;;23.16;55.56;99746.89;254681;1102;115657;-75
2021/06/19 22:58:12;;;;;;;6.55;5.98;;;;;;;23.12;55.62;99744.00;254176;1104;115451;-77
2021/06/19 23:03:15;;;;;;;6.80;6.28;;;;;;;23.04;55.85;99744.78;254243;1104;115040;-77
2021/06/19 23:08:22;;;;;;;7.47;6.87;;;;;;;22.99;55.92;99749.56;254474;1096;116034;-75
2021/06/19 23:13:26;;;;;;;12.28;7.95;;;;;;;22.97;56.02;99755.31;254446;1104;115570;-73
2021/06/19 23:18:29;;;;;;;15.50;8.53;;;;;;;22.93;56.35;99754.34;254140;1104;115392;-71
2021/06/19 23:23:33;;;;;;;9.08;7.80;;;;;;;22.90;56.39;99755.00;254306;1104;115869;-72